SBES

Details ICAO SBES
Name SAO PEDRO DA ALDEIA
Region Brazil
Timezone America/Sao_Paulo (UTC-2.0)
Plans Departing 2
Arriving 6
Stats Elevation 61 ft / 19 m (AMSL)
Location -22.812873° -42.092633°
Runways 1
Magnetic Variation 23.141° W
Sunrise 2017-12-15 07:59:15 UTC / 2017-12-15 05:59:15 Local
Sunset 2017-12-15 21:30:41 UTC / 2017-12-15 19:30:41 Local
Advertisement - Login to hide

Runways

ID Width Length Bearing (true) Bearing (mag) Surface Threshold Offset Overrun Length
07 92 ft / 28 m 7,867 ft / 2,398 m 43.80° 66.94° Concrete 0 ft / 0 m 330 ft / 101 m
25 92 ft / 28 m 7,867 ft / 2,398 m 223.80° 246.94° Concrete 0 ft / 0 m 330 ft / 101 m

Map

Weather


0- 5 10 15 20 25 30 35+ Temperature / ° C

Clouds and Precipitation
Forecast for 2017-12-16 00:00 UTC. Updated 38 minutes ago

Ground ~20,000 ft ~40,000 ft Winds

METAR

SBES 151900Z 06015KT 9999 FEW015 FEW025TCU 29/23 Q1011

TAF

Not found

Frequencies

Ground 121.90 MHz GND
Tower 122.80 MHz ALDEIA TWR
Tower 118.30 MHz ALDEIA TWR
Approach 119.45 MHz ALDEIA APP
Warning: Do not use this data for real-world aviation or navigation. No guarantee of current accuracy is given.